Aviation Digital Data Service (ADDS)

Output produced by METARs form (1023 UTC 19 January 2019)
found at http://www.aviationweather.gov/metar/data/
 
KAKR 190954Z AUTO 06008KT 10SM FEW014 OVC028 M02/M05 A3010 RMK AO2 SLP203 T10171050
KCAK 190951Z 07010KT 5SM HZ OVC028 M02/M05 A3009 RMK AO2 SLP201 T10221050 $
KCAK 190549Z 1906/2006 07009KT P6SM BKN025 OVC090 
     FM191400 07012G20KT 2SM -SN OVC015 
     FM192000 03014G22KT 1/2SM SN OVC005 
     FM200400 01020G30KT 1SM -SN BLSN OVC008
       
KHZY 190953Z AUTO 07005KT 1 1/4SM -SN BR OVC019 M04/M05 A3015 RMK AO2 SLP220 P0000 T10391050
KUNI 191015Z AUTO 05007KT 10SM OVC040 01/00 A3001 RMK AO2 T00070000
KI69 191015Z AUTO 10008KT 10SM SCT042 OVC050 02/00 A2993 RMK AO2 T00170000
KEDJ 191015Z AUTO 08015G20KT 7SM FEW017 M02/M03 A2997 RMK AO1
KCDI 191015Z AUTO 03004KT 7SM BKN008 OVC032 00/M01 A3007 RMK AO2 T00001008
KRZT 191015Z AUTO 06006KT 10SM OVC039 00/00 A2999 RMK AO2
KCVG 190952Z 09010KT 9SM OVC037 02/M01 A2991 RMK AO2 SLP133 T00171006
KCVG 190904Z 1909/2012 06010KT P6SM OVC013 
     FM191100 08012KT P6SM -RASN OVC012 
     FM191500 06013KT 3SM -RA OVC011 
     FM191700 05013G20KT 3SM -RA BR OVC006 
     FM192200 03016G23KT 3SM -FZRAPL BR OVC005 
     FM200000 01017G36KT 1SM -SN BR OVC004 WS020/05045KT 
     FM200600 36019G36KT 2SM -SN BR OVC006 
     FM200800 36019G37KT 5SM -SN BR OVC015
       
KLUK 190953Z AUTO 07006KT 10SM OVC045 02/M01 A2995 RMK AO2 SLP145 T00221006
KLUK 190532Z 1906/2006 09008KT P6SM OVC025 
     FM191100 08011KT P6SM -RASN OVC015 
     FM191500 06012KT 3SM -RA OVC012 
     FM191700 05013G20KT 3SM -RA BR OVC008 
     FM192200 03016G23KT 3SM -FZRAPL BR OVC006 
     FM200000 01017G36KT 1SM -SN BR OVC004 WS020/05045KT
       
KBKL 190953Z AUTO 06009KT 10SM SCT036 OVC100 M02/M05 A3015 RMK AO2 SLP215 T10221050
KCLE 190951Z 06006KT 10SM BKN030 OVC035 M02/M05 A3016 RMK AO2 SLP220 T10171050
KCLE 190913Z 1909/2012 05010KT P6SM SCT015 OVC035 
     FM191500 06011G20KT 3SM -SN OVC015 
     FM191700 05012G22KT 1SM -SN OVC008 
     FM192000 04018G28KT 1/2SM SN BLSN OVC006 
     FM200300 02020G30KT 2SM -SN BLSN OVC008 
     FM200800 01020G30KT 5SM -SN OVC012
       
KTZR 191015Z AUTO 06008KT 7SM OVC022 00/M01 A3001 RMK AO2 T00031015
KOSU 190953Z AUTO 06008KT 5SM BR FEW014 OVC024 M01/M02 A3003 RMK AO2 SLP177 T10061022
KCMH 190951Z 06009KT 6SM BR BKN024 OVC031 01/M02 A3004 RMK AO2 PRESFR SLP178 T00061022
KCMH 190532Z 1906/2006 08006KT P6SM OVC025 
     FM191300 07012KT P6SM VCSH OVC019 
     FM191400 07013KT 4SM -SN BR OVC017 
     FM191600 06013KT 2SM -FZRASNPL OVC008 
     FM192200 03015G22KT 1 1/2SM -SN BR OVC006 
     FM200000 02016G25KT 1SM -SN OVC004 
     FM200400 36020G38KT 1SM -SN BR OVC008 WS020/03045KT
       
KLCK 191015Z AUTO 07009KT 7SM OVC028 00/M02 A3001 RMK AO2 T00001020
KLCK 190532Z 1906/2006 08006KT P6SM OVC025 
     FM191300 07012KT P6SM VCSH OVC019 
     FM191400 07013KT 4SM -SN BR OVC017 
     FM191600 06013KT 2SM -FZRASNPL OVC008 
     FM192200 03015G22KT 1 1/2SM -SN BR OVC006 
     FM200000 02016G25KT 1SM -SN OVC004 
     FM200400 36020G38KT 1SM -SN BR OVC008 WS020/03045KT
       
KMGY 190953Z AUTO 08012G19KT 6SM BR OVC026 01/M01 A2992 RMK AO2 RAB07E35 SLP140 P0000 T00111011
KI19 191015Z AUTO 09008G16KT 040V120 5SM BR OVC025 00/00 A2996 RMK AO2 T00031003
KDAY 190956Z COR 08013KT 2 1/2SM -DZ BR OVC015 01/M02 A2995 RMK AO2 DZB54 PRESFR SLP150 P0000 T00061017
KDAY 190532Z 1906/2006 11008KT P6SM OVC015 
     FM190900 08012KT P6SM VCSH OVC015 
     FM191300 07015KT 5SM -SN OVC011 
     FM191500 07015G22KT 1 1/2SM -SNPL BR OVC008 
     FM192000 04018G26KT 1SM -SN BR OVC003 
     FM200200 02021G38KT 2SM -SN BR OVC005
       
KDFI 190953Z AUTO 07012KT 10SM OVC013 M03/M06 A3010 RMK AO2 SLP200 T10331061
KDLZ 191015Z AUTO 06007KT 7SM OVC023 M01/M03 A3004 RMK AO2
KFDY 190953Z AUTO 06014KT 10SM BKN011 OVC027 M02/M04 A3008 RMK AO2 SLP191 T10171044
KFDY 190911Z 1909/2006 05012KT P6SM OVC012 
     TEMPO 1912/1915 06014KT 2SM -SN OVC015 
     FM191500 05017G25KT 1/2SM SN BLSN OVC008 
     FM192200 03020G30KT 1SM -SN BLSN OVC008 
     FM200100 03020G30KT 4SM -SN BLSN OVC010
       
KHAO 190953Z AUTO 09008KT 10SM BKN037 OVC049 02/M01 A2995 RMK AO2 RAE0856 SLP147 P0000 T00171011
KI67 191015Z AUTO 05006KT 10SM BKN015 OVC030 01/M01 A2994 RMK AO1
KLHQ 190953Z AUTO 05005KT 8SM FEW022 OVC028 01/M02 A3005 RMK AO2 SLP182 T00061017
KI68 191015Z AUTO 09012KT 7SM BKN037 OVC047 01/01 A2993 RMK AO1 T00100010
KAOH 190953Z AUTO 07017KT 9SM FEW011 OVC020 M02/M04 A3003 RMK AO2 PRESFR SLP179 T10171044
KUYF 191015Z AUTO 05010KT 4SM UP OVC020 00/M01 A2999 RMK AO2
KLPR 190953Z AUTO 05012KT 10SM BKN011 OVC029 M02/M06 A3013 RMK AO2 SLP211 T10221061
KMFD 190952Z 05007KT 7SM OVC022 M03/M04 A3008 RMK AO2 SLP201 T10281044
KMFD 190549Z 1906/2006 06006KT P6SM OVC020 
     FM191200 07012KT P6SM OVC015 
     FM191500 07014G22KT 2SM -SN OVC012 
     FM191900 06015G25KT 1/2SM SN BLSN OVC006 
     FM200200 02018G28KT 1SM -SN BLSN OVC008
       
KMNN 190953Z AUTO 07009KT 6SM HZ OVC026 M02/M04 A3006 RMK AO2 SLP192 T10171044
KMRT 191016Z AUTO 08010KT 7SM OVC022 M01/M03 A3002 RMK AO2 T10101030
KMWO 191015Z AUTO 06010KT 10SM OVC029 01/M01 A2996 RMK AO2 T00111009
K4I3 191015Z AUTO 03007KT 7SM SCT011 OVC026 M02/M03 A3006 RMK AO2
KVTA 190954Z AUTO VRB04KT 6SM HZ OVC031 01/M02 A3005 RMK AO2 SLP183 T00061022
KPHD 190953Z AUTO 05005KT 9SM CLR M01/M05 A3009 RMK AO2 SLP199 T10111050
KOWX 191015Z AUTO 07016KT 10SM SCT012 OVC025 M03/M05 A3007 RMK AO1
KOXD 191015Z AUTO 09011G14KT 10SM SCT007 OVC023 01/00 A2992 RMK AO2 T00070000
KPCW 191015Z AUTO 08011G18KT 10SM OVC010 M02/M03 A3012 RMK AO2
KPMH 191015Z AUTO 07003KT 10SM OVC044 01/00 A2999 RMK AO2 T00130000
KPOV 191015Z AUTO 05005KT 10SM SCT011 OVC027 M03/M06 A3011 RMK AO2 T10351057 PWINO
KSGH 191008Z AUTO 09018KT 4SM -FZRA BR OVC016 00/M01 A2995 RMK AO2 UPE02FZRAB02 PRESFR P0000
KTDZ 191015Z AUTO 05012G16KT 10SM SCT009 OVC017 M03/M06 A3014 RMK AO2 T10331056
KTOL 190952Z 06013KT 10SM BKN012 OVC028 M03/M07 A3013 RMK AO2 SLP210 T10331067
KTOL 190910Z 1909/2006 06012G20KT P6SM -SN OVC012 
     FM191400 05012G20KT 2SM -SN OVC015 
     FM191600 05015G25KT 1/2SM SN BLSN OVC008 
     FM192100 03018G28KT 3SM -SN BLSN OVC015 
     FM200000 02020G30KT 6SM -SN OVC015
       
KI74 191015Z AUTO 08014G18KT 5SM BR OVC019 M01/M02 A2997 RMK AO2
KVNW 191015Z AUTO 08016G21KT 10SM SCT012 OVC025 M02/M04 A3003 RMK AO2
KVES 191015Z AUTO 09012KT 4SM BR OVC010 M01/M01 A2996 RMK AO2
KAXV 191015Z AUTO 07014G20KT 5SM HZ OVC021 M01/M03 A2998 RMK AO2
KLNN 191015Z AUTO 09006KT 2SM SCT009 BKN020 OVC025 A3015 RMK AO1
KILN 190954Z AUTO 08009KT 6SM BR BKN030 OVC035 00/M02 A2996 RMK AO2 SLP168 T00001022
KILN 190532Z 1906/2006 09008KT P6SM OVC022 
     FM191200 08014KT P6SM VCSH OVC015 
     FM191400 07015KT 2SM -FZRASN BR OVC016 
     FM191600 07015KT 3SM -RASN BR OVC008 
     FM192200 04018KT 2SM -FZRAPL OVC006 
     FM200000 03018G31KT 1SM -SN BR OVC004 
     FM200500 36022G36KT 2SM -SN BR OVC008
       
KBJJ 190956Z AUTO 07009KT 9SM OVC029 M03/M05 A3010 RMK AO2 SLP205 T10281050
KYNG 190951Z 06007KT 9SM FEW009 BKN028 OVC100 M03/M05 A3009 RMK AO2 SLP204 T10281050
KYNG 190549Z 1906/2006 05006KT P6SM OVC020 
     TEMPO 1907/1909 4SM -SN OVC015 
     FM191700 07009KT 2SM -SN OVC008 
     FM192200 06015G25KT 1/2SM SN BLSN OVC006 
     FM200400 01020G28KT 1SM -SN OVC008
       
KZZV 190953Z AUTO 02003KT 5SM BR BKN030 OVC045 00/M02 A3006 RMK AO2 SLP188 T00001022
KZZV 190520Z 1906/2006 08003KT P6SM OVC025 
     FM191400 07008KT 3SM -SN OVC015 
     FM191700 07008KT 2SM -SN OVC008 
     FM192000 03008KT 2SM -FZRASN OVC005 
     FM200200 32013KT 1/2SM SN OVC005 
     FM200500 30015KT 2SM -SN OVC012